Time;durP1;ratioP1;P1;durP2;ratioP2;P2;SDS_P1;SDS_P2;PMS_P1;PMS_P2;Temp;Humidity;BMP_temperature;BMP_pressure;BME280_temperature;BME280_humidity;BME280_pressure;Samples;Min_cycle;Max_cycle;Signal;HPM_P1;HPM_P2
2023/02/26 00:00:55;;;;;;;4.70;3.03;;;17.70;67.90;;;;;;10536269;28;20063;-27
2023/02/26 00:06:00;;;;;;;10.15;3.63;;;17.70;67.90;;;;;;10536047;28;20565;-24
2023/02/26 00:11:02;;;;;;;6.05;3.15;;;17.60;67.80;;;;;;10537997;28;20056;-29
2023/02/26 00:16:13;;;;;;;8.95;4.07;;;17.70;67.40;;;;;;10531830;28;20077;-25
2023/02/26 00:21:17;;;;;;;6.93;3.37;;;17.60;67.40;;;;;;10532975;28;20047;-23
2023/02/26 00:26:20;;;;;;;9.55;3.97;;;17.60;67.60;;;;;;10533257;28;20549;-24
2023/02/26 00:31:24;;;;;;;11.52;4.43;;;17.50;67.10;;;;;;10535492;28;20059;-24
2023/02/26 00:36:38;;;;;;;7.15;4.10;;;17.60;67.40;;;;;;10534456;28;20055;-24
2023/02/26 00:41:40;;;;;;;6.20;3.08;;;17.50;67.30;;;;;;10535139;28;20076;-24
2023/02/26 00:46:49;;;;;;;7.05;2.55;;;17.50;66.80;;;;;;10533824;28;20044;-24
2023/02/26 00:51:55;;;;;;;5.22;2.38;;;17.50;67.30;;;;;;10535022;28;20089;-24
2023/02/26 00:56:59;;;;;;;7.72;3.05;;;17.50;67.00;;;;;;10524557;28;20066;-23
2023/02/26 01:02:02;;;;;;;8.68;3.10;;;17.40;67.00;;;;;;10532430;28;20036;-23
2023/02/26 01:07:04;;;;;;;8.32;4.05;;;17.50;68.10;;;;;;10533240;28;20488;-23
2023/02/26 01:12:11;;;;;;;9.90;3.85;;;17.50;66.70;;;;;;10537220;28;20142;-24
2023/02/26 01:17:19;;;;;;;8.57;4.10;;;17.40;67.00;;;;;;10532606;28;20047;-26
2023/02/26 01:22:23;;;;;;;5.72;2.03;;;17.30;67.80;;;;;;10532978;28;20044;-23
2023/02/26 01:27:25;;;;;;;6.13;2.42;;;17.10;68.10;;;;;;10534059;28;20036;-24
2023/02/26 01:32:38;;;;;;;4.90;1.65;;;16.90;61.50;;;;;;10533194;28;20885;-22
2023/02/26 01:37:50;;;;;;;4.97;1.95;;;16.90;69.90;;;;;;10541350;28;20052;-28
2023/02/26 01:42:56;;;;;;;6.25;1.80;;;17.00;69.30;;;;;;10526390;28;20854;-24
2023/02/26 01:48:04;;;;;;;3.03;1.90;;;16.90;70.10;;;;;;10523950;28;20101;-25
2023/02/26 01:53:23;;;;;;;2.70;1.35;;;17.00;68.50;;;;;;10529229;28;20102;-23
2023/02/26 01:58:27;;;;;;;8.13;3.17;;;17.10;69.40;;;;;;10532726;28;20123;-24
2023/02/26 02:03:35;;;;;;;7.72;4.18;;;17.10;68.20;;;;;;10535959;28;20355;-26
2023/02/26 02:08:37;;;;;;;8.68;3.33;;;17.10;68.40;;;;;;10533010;28;20070;-24
2023/02/26 02:13:55;;;;;;;4.82;1.30;;;16.90;69.10;;;;;;10517225;28;20175;-24
2023/02/26 02:19:11;;;;;;;3.10;1.25;;;16.90;69.50;;;;;;10524687;28;20055;-24
2023/02/26 02:24:17;;;;;;;6.63;2.25;;;16.90;69.60;;;;;;10541515;28;20565;-24
2023/02/26 02:29:31;;;;;;;4.53;2.20;;;17.00;69.00;;;;;;10532934;28;20538;-24
2023/02/26 02:34:39;;;;;;;3.17;1.65;;;17.00;68.50;;;;;;10530321;28;20079;-27
2023/02/26 02:39:45;;;;;;;5.15;1.70;;;16.90;69.50;;;;;;10529387;28;20078;-25
2023/02/26 02:44:52;;;;;;;5.72;2.85;;;17.00;68.60;;;;;;10530348;28;20778;-24
2023/02/26 02:50:01;;;;;;;5.30;2.38;;;17.00;67.60;;;;;;10530038;28;20086;-25
2023/02/26 02:55:09;;;;;;;5.93;3.05;;;16.90;68.80;;;;;;10529470;28;20048;-24
2023/02/26 03:00:13;;;;;;;7.65;3.35;;;16.90;68.30;;;;;;10528378;28;20039;-26
2023/02/26 03:05:17;;;;;;;5.47;2.90;;;16.90;68.10;;;;;;10525605;28;20048;-23
2023/02/26 03:10:20;;;;;;;4.53;2.42;;;16.90;68.20;;;;;;10536587;28;20075;-24
2023/02/26 03:15:25;;;;;;;;;;;17.00;68.10;;;;;;10530427;28;20143;-31
2023/02/26 03:20:34;;;;;;;4.80;2.38;;;16.90;68.60;;;;;;10526439;28;19966;-24
2023/02/26 03:25:45;;;;;;;8.05;2.90;;;16.90;68.40;;;;;;10531752;28;20131;-23
2023/02/26 03:30:50;;;;;;;4.10;1.95;;;16.90;68.30;;;;;;10529428;28;20072;-25
2023/02/26 03:35:57;;;;;;;3.35;1.67;;;16.90;68.20;;;;;;10533385;28;20485;-23
2023/02/26 03:41:04;;;;;;;3.33;1.90;;;16.80;68.40;;;;;;10537387;28;20487;-24
2023/02/26 03:46:09;;;;;;;4.68;1.85;;;16.80;68.30;;;;;;10539295;28;20111;-27
2023/02/26 03:51:14;;;;;;;3.17;1.60;;;16.80;68.20;;;;;;10539582;28;20127;-24
2023/02/26 03:56:20;;;;;;;4.88;2.42;;;16.80;67.70;;;;;;10534430;28;20051;-24
2023/02/26 04:01:26;;;;;;;5.30;1.70;;;16.80;68.00;;;;;;10538423;28;20462;-24
2023/02/26 04:06:30;;;;;;;5.35;1.88;;;16.70;67.60;;;;;;10536663;28;20139;-24
2023/02/26 04:11:33;;;;;;;2.70;1.33;;;16.60;68.30;;;;;;10536128;28;20660;-25
2023/02/26 04:16:35;;;;;;;3.53;2.00;;;16.70;66.80;;;;;;10540400;28;20075;-24
2023/02/26 04:21:38;;;;;;;2.53;1.30;;;16.70;67.10;;;;;;10535484;28;20032;-25
2023/02/26 04:26:40;;;;;;;3.17;1.48;;;16.70;67.40;;;;;;10533959;28;20044;-25
2023/02/26 04:31:42;;;;;;;2.53;1.30;;;16.70;67.50;;;;;;10533255;28;20036;-25
2023/02/26 04:36:45;;;;;;;2.22;1.23;;;16.70;67.40;;;;;;10534894;28;20102;-25
2023/02/26 04:41:47;;;;;;;3.63;1.40;;;16.60;67.70;;;;;;10534611;28;20071;-24
2023/02/26 04:46:49;;;;;;;3.23;1.23;;;16.60;67.60;;;;;;10535082;28;20044;-28
2023/02/26 04:51:52;;;;;;;3.77;1.67;;;16.60;67.30;;;;;;10529796;28;20127;-25
2023/02/26 04:56:54;;;;;;;4.55;1.77;;;16.60;66.50;;;;;;10534621;28;20476;-25
2023/02/26 05:01:56;;;;;;;2.97;1.13;;;16.50;68.10;;;;;;10534115;28;20454;-25
2023/02/26 05:06:59;;;;;;;2.13;1.50;;;16.40;67.70;;;;;;10535229;28;20146;-25
2023/02/26 05:12:01;;;;;;;2.28;1.20;;;16.40;68.00;;;;;;10529087;28;20983;-24
2023/02/26 05:17:03;;;;;;;1.57;0.80;;;16.40;68.00;;;;;;10532542;28;20044;-24
2023/02/26 05:22:06;;;;;;;2.00;1.13;;;16.40;67.30;;;;;;10536002;28;20040;-25
2023/02/26 05:27:08;;;;;;;1.33;1.00;;;16.30;67.90;;;;;;10533515;28;20044;-24
2023/02/26 05:32:10;;;;;;;1.40;0.80;;;16.30;67.80;;;;;;10532032;28;20476;-24
2023/02/26 05:37:14;;;;;;;2.95;0.88;;;16.40;68.00;;;;;;10532286;28;20731;-25
2023/02/26 05:42:15;;;;;;;1.20;0.65;;;16.40;67.40;;;;;;10537912;28;20070;-24
2023/02/26 05:47:17;;;;;;;1.17;0.67;;;16.50;66.10;;;;;;10531420;28;20075;-23
2023/02/26 05:52:20;;;;;;;0.83;0.50;;;16.70;65.40;;;;;;10531774;28;20042;-24
2023/02/26 05:57:22;;;;;;;1.73;0.65;;;16.50;66.60;;;;;;10538296;28;20130;-24
2023/02/26 06:02:25;;;;;;;1.07;0.50;;;16.90;64.60;;;;;;10531681;28;20047;-22
2023/02/26 06:07:29;;;;;;;2.03;0.60;;;17.00;64.30;;;;;;10532753;28;20071;-24
2023/02/26 06:12:30;;;;;;;1.55;1.08;;;17.00;63.80;;;;;;10534202;28;20101;-24
2023/02/26 06:17:33;;;;;;;0.73;0.40;;;17.10;63.80;;;;;;10524251;28;20796;-26
2023/02/26 06:22:36;;;;;;;1.17;0.45;;;17.20;63.60;;;;;;10519422;28;20043;-24
2023/02/26 06:27:38;;;;;;;1.45;0.52;;;17.20;63.60;;;;;;10526400;28;20043;-26
2023/02/26 06:32:40;;;;;;;0.40;0.30;;;17.00;64.30;;;;;;10532931;28;20400;-24
2023/02/26 06:37:43;;;;;;;0.93;0.30;;;17.10;63.90;;;;;;10531376;28;20048;-24
2023/02/26 06:42:45;;;;;;;2.17;0.40;;;17.20;63.70;;;;;;10531345;28;20434;-25
2023/02/26 06:47:47;;;;;;;1.27;0.20;;;17.20;63.20;;;;;;10529370;28;20135;-23
2023/02/26 06:52:51;;;;;;;2.95;0.50;;;17.30;63.00;;;;;;10528908;28;20113;-24
2023/02/26 06:57:52;;;;;;;0.50;0.43;;;17.30;63.20;;;;;;10529992;28;20096;-24
2023/02/26 07:14:19;;;;;;;1.42;0.63;;;17.30;62.60;;;;;;10509009;27;20128;-23
2023/02/26 07:19:21;;;;;;;1.45;0.50;;;17.40;63.00;;;;;;10510332;28;20102;-24
2023/02/26 07:24:24;;;;;;;1.63;0.60;;;17.30;62.90;;;;;;10495150;28;20048;-26
2023/02/26 07:29:27;;;;;;;0.82;0.32;;;17.40;62.90;;;;;;10495013;28;20045;-24
2023/02/26 07:34:29;;;;;;;3.53;0.50;;;17.40;62.90;;;;;;10492993;28;20170;-26
2023/02/26 07:39:31;;;;;;;1.33;0.45;;;17.40;62.90;;;;;;10498174;28;20045;-24
2023/02/26 07:44:34;;;;;;;0.75;0.43;;;17.40;62.70;;;;;;10506195;28;20064;-25
2023/02/26 07:49:36;;;;;;;2.13;0.82;;;17.50;62.60;;;;;;10492685;28;20098;-24
2023/02/26 07:54:38;;;;;;;3.83;0.73;;;17.50;62.60;;;;;;10500806;28;20127;-23
2023/02/26 07:59:41;;;;;;;1.20;0.63;;;17.50;62.90;;;;;;10486675;28;20477;-23
2023/02/26 08:04:43;;;;;;;3.33;0.55;;;17.50;62.90;;;;;;10496325;28;20044;-25
2023/02/26 08:09:45;;;;;;;1.13;0.73;;;17.50;62.80;;;;;;10502196;28;20056;-25
2023/02/26 08:14:49;;;;;;;1.05;0.30;;;17.50;62.70;;;;;;10517100;28;20044;-24
2023/02/26 08:19:50;;;;;;;2.72;0.40;;;17.50;63.10;;;;;;10505503;28;20493;-24
2023/02/26 08:24:52;;;;;;;2.05;0.30;;;17.50;63.10;;;;;;10475457;28;20492;-25
2023/02/26 08:29:56;;;;;;;3.78;0.60;;;17.60;63.00;;;;;;10488317;28;20125;-25
2023/02/26 08:34:58;;;;;;;1.27;0.30;;;17.50;63.20;;;;;;10479408;28;20068;-24
2023/02/26 08:39:59;;;;;;;1.52;0.43;;;17.60;63.40;;;;;;10459739;28;20499;-24
2023/02/26 08:45:03;;;;;;;5.53;0.53;;;17.40;63.70;;;;;;10482008;28;20076;-25
2023/02/26 08:50:06;;;;;;;1.00;0.40;;;17.50;64.00;;;;;;10476973;28;20049;-26
2023/02/26 08:55:08;;;;;;;5.07;0.60;;;17.10;65.60;;;;;;10490489;28;20468;-25
2023/02/26 09:00:15;;;;;;;0.70;0.50;;;17.50;64.20;;;;;;10476100;28;20121;-25
2023/02/26 09:05:17;;;;;;;2.67;0.60;;;17.10;65.90;;;;;;10487417;28;20143;-23
2023/02/26 09:10:20;;;;;;;1.75;0.65;;;17.70;64.40;;;;;;10476570;28;20047;-31
2023/02/26 09:15:23;;;;;;;1.00;0.45;;;17.40;65.60;;;;;;10488461;28;20080;-25
2023/02/26 09:20:26;;;;;;;1.33;0.43;;;17.40;63.40;;;;;;10464716;28;20040;-23
2023/02/26 09:25:27;;;;;;;;;;;17.70;64.30;;;;;;10486320;28;20105;-24
2023/02/26 09:30:31;;;;;;;4.53;1.02;;;17.40;66.60;;;;;;10478270;28;20019;-23
2023/02/26 09:35:32;;;;;;;2.10;0.60;;;17.70;64.80;;;;;;10477429;28;20045;-24
2023/02/26 09:40:42;;;;;;;5.18;1.17;;;17.80;64.50;;;;;;10477930;28;20044;-24
2023/02/26 09:45:48;;;;;;;10.93;1.33;;;17.30;66.80;;;;;;10470997;28;20135;-23
2023/02/26 09:50:53;;;;;;;9.40;1.33;;;17.30;67.40;;;;;;10494233;28;20098;-24
2023/02/26 09:56:00;;;;;;;19.30;2.22;;;17.10;69.90;;;;;;10479869;28;20040;-24
2023/02/26 10:01:08;;;;;;;11.57;1.13;;;17.00;69.90;;;;;;10467364;28;20127;-25
2023/02/26 10:06:19;;;;;;;8.38;1.20;;;17.40;68.70;;;;;;10468088;28;20040;-26
2023/02/26 10:11:29;;;;;;;18.40;2.00;;;17.40;69.00;;;;;;10475844;28;20052;-26
2023/02/26 10:16:39;;;;;;;4.45;0.88;;;17.30;69.30;;;;;;10484034;28;20463;-24
2023/02/26 10:21:47;;;;;;;8.18;1.90;;;17.40;68.30;;;;;;10474845;28;20053;-25
2023/02/26 10:26:53;;;;;;;9.70;2.78;;;17.30;68.60;;;;;;10474217;28;20068;-26
2023/02/26 10:32:06;;;;;;;5.25;1.17;;;17.30;68.10;;;;;;10471232;28;20086;-22
2023/02/26 10:37:17;;;;;;;6.55;0.90;;;17.90;70.00;;;;;;10474672;28;20565;-24
2023/02/26 10:42:25;;;;;;;6.38;1.30;;;18.00;68.70;;;;;;10479958;28;20040;-24
2023/02/26 10:47:37;;;;;;;14.93;2.33;;;17.40;68.60;;;;;;10466422;28;20124;-23
2023/02/26 10:52:42;;;;;;;6.97;0.80;;;17.60;68.10;;;;;;10471337;28;20140;-33
2023/02/26 10:57:48;;;;;;;6.18;0.93;;;17.70;66.60;;;;;;10478102;28;20117;-23
2023/02/26 11:02:54;;;;;;;4.85;0.70;;;17.50;64.40;;;;;;10464465;28;20652;-22
2023/02/26 11:07:59;;;;;;;12.50;2.17;;;17.40;67.30;;;;;;10483161;28;20048;-23
2023/02/26 11:13:01;;;;;;;5.60;1.10;;;17.70;66.90;;;;;;10471346;28;20385;-24
2023/02/26 11:18:05;;;;;;;4.55;1.00;;;18.00;67.60;;;;;;10471106;28;20488;-28
2023/02/26 11:23:13;;;;;;;4.53;0.77;;;18.00;65.10;;;;;;10484750;28;20096;-26
2023/02/26 11:28:22;;;;;;;4.22;0.60;;;17.80;65.80;;;;;;10479560;28;20123;-26
2023/02/26 11:33:29;;;;;;;4.35;1.10;;;17.70;66.50;;;;;;10474163;28;20049;-25
2023/02/26 11:38:32;;;;;;;7.88;0.80;;;18.00;64.80;;;;;;10472442;28;20033;-26
2023/02/26 11:43:40;;;;;;;9.05;1.00;;;17.60;65.20;;;;;;10477686;28;20052;-24
2023/02/26 11:48:46;;;;;;;6.38;1.33;;;17.50;67.90;;;;;;10476601;28;20098;-25
2023/02/26 11:53:51;;;;;;;6.00;2.13;;;17.50;67.00;;;;;;10477889;28;20045;-25
2023/02/26 11:58:54;;;;;;;4.55;2.28;;;17.70;65.20;;;;;;10462150;28;20072;-24
2023/02/26 12:04:01;;;;;;;4.18;1.80;;;17.70;65.10;;;;;;10471854;28;20047;-25
2023/02/26 12:09:04;;;;;;;3.65;1.40;;;17.90;63.90;;;;;;10476877;28;20037;-25
2023/02/26 12:14:21;;;;;;;2.42;1.20;;;18.00;63.00;;;;;;10485527;28;20055;-25
2023/02/26 12:19:36;;;;;;;3.83;1.83;;;18.10;61.70;;;;;;10468589;28;20552;-24
2023/02/26 12:24:55;;;;;;;4.68;1.30;;;17.80;63.10;;;;;;10477292;28;20106;-24
2023/02/26 12:30:11;;;;;;;2.63;1.00;;;17.70;58.70;;;;;;10482982;28;20484;-25
2023/02/26 12:35:39;;;;;;;2.83;1.80;;;18.00;62.20;;;;;;10480269;28;20048;-25
2023/02/26 12:40:56;;;;;;;9.27;3.25;;;17.50;63.20;;;;;;10491616;28;20076;-25
2023/02/26 12:46:07;;;;;;;7.45;3.88;;;17.90;62.80;;;;;;10481183;28;20052;-24
2023/02/26 12:51:21;;;;;;;6.60;2.53;;;18.00;61.80;;;;;;10488802;28;20540;-27
2023/02/26 12:56:43;;;;;;;10.23;4.60;;;17.80;62.60;;;;;;10481192;28;20117;-25
2023/02/26 13:01:58;;;;;;;21.03;8.47;;;18.00;62.50;;;;;;10478467;28;20046;-25
2023/02/26 13:07:30;;;;;;;6.60;2.85;;;18.00;62.20;;;;;;10481278;28;20440;-24
2023/02/26 13:12:44;;;;;;;3.90;1.80;;;18.00;62.00;;;;;;10471279;28;20135;-23
2023/02/26 13:17:56;;;;;;;10.63;5.82;;;18.10;62.10;;;;;;10479068;28;20408;-25
2023/02/26 13:23:03;;;;;;;9.70;4.50;;;18.00;62.00;;;;;;10480536;28;20068;-24
2023/02/26 13:28:14;;;;;;;10.52;4.75;;;18.20;60.30;;;;;;10473933;28;20044;-25
2023/02/26 13:33:19;;;;;;;4.13;1.75;;;18.20;61.00;;;;;;10488474;28;20087;-25
2023/02/26 13:38:33;;;;;;;8.48;4.32;;;18.20;60.40;;;;;;10488616;28;20090;-25
2023/02/26 13:43:50;;;;;;;3.95;1.80;;;18.40;60.80;;;;;;10470684;28;20048;-24
2023/02/26 13:49:01;;;;;;;2.25;1.20;;;18.30;61.00;;;;;;10469948;28;20032;-25
2023/02/26 13:54:27;;;;;;;6.68;2.90;;;18.60;59.90;;;;;;10479043;28;20056;-28
2023/02/26 13:59:45;;;;;;;3.45;1.60;;;18.60;60.00;;;;;;10473920;28;20094;-25
2023/02/26 14:04:51;;;;;;;3.20;1.45;;;18.70;59.60;;;;;;10483543;28;20119;-26
2023/02/26 14:10:01;;;;;;;3.67;1.90;;;18.70;60.20;;;;;;10503570;28;20049;-24
2023/02/26 14:15:37;;;;;;;10.10;2.47;;;19.00;58.80;;;;;;10491220;28;20044;-23
2023/02/26 14:20:39;;;;;;;18.52;3.65;;;19.00;58.70;;;;;;10488922;28;20056;-25
2023/02/26 14:25:48;;;;;;;11.35;4.07;;;19.10;57.80;;;;;;10483011;28;20079;-25
2023/02/26 14:30:52;;;;;;;15.30;4.80;;;19.20;55.20;;;;;;10487575;28;20080;-26
2023/02/26 14:35:55;;;;;;;6.63;3.10;;;19.20;55.60;;;;;;10484600;28;20048;-24
2023/02/26 14:41:04;;;;;;;7.88;2.50;;;19.10;54.70;;;;;;10481326;28;20052;-24
2023/02/26 14:46:08;;;;;;;2.65;1.50;;;19.30;53.30;;;;;;10474596;28;20722;-25
2023/02/26 14:51:21;;;;;;;3.65;1.67;;;19.30;58.90;;;;;;10477619;28;20133;-26
2023/02/26 14:56:31;;;;;;;3.10;1.50;;;19.40;52.80;;;;;;10478824;28;20147;-25
2023/02/26 15:01:46;;;;;;;2.83;1.00;;;19.40;52.80;;;;;;10485259;28;20053;-24
2023/02/26 15:07:19;;;;;;;2.92;1.00;;;19.30;52.30;;;;;;10486983;28;20131;-25
2023/02/26 15:12:36;;;;;;;1.77;0.70;;;19.40;52.40;;;;;;10480876;28;20055;-24
2023/02/26 15:17:48;;;;;;;3.80;0.70;;;19.40;51.70;;;;;;10477279;28;20073;-24
2023/02/26 15:23:31;;;;;;;4.13;0.95;;;19.40;52.30;;;;;;10478324;28;20045;-25
2023/02/26 15:28:37;;;;;;;1.60;0.80;;;19.00;53.60;;;;;;10483331;28;20090;-26
2023/02/26 15:33:39;;;;;;;1.30;0.75;;;19.30;52.80;;;;;;10481478;28;20492;-24
2023/02/26 15:38:45;;;;;;;3.20;0.82;;;19.00;56.20;;;;;;10461908;28;20049;-25
2023/02/26 15:43:52;;;;;;;4.47;0.70;;;19.20;56.80;;;;;;10483047;28;20557;-24
2023/02/26 15:48:58;;;;;;;2.25;1.00;;;19.20;54.20;;;;;;10488812;28;20147;-26
2023/02/26 15:54:02;;;;;;;2.20;0.70;;;18.90;55.70;;;;;;10488976;28;20047;-26
2023/02/26 15:59:12;;;;;;;1.65;0.65;;;19.20;58.30;;;;;;10499001;28;20043;-25
2023/02/26 16:04:17;;;;;;;0.70;0.38;;;19.20;59.00;;;;;;10488343;28;20037;-28
2023/02/26 16:09:20;;;;;;;2.05;0.60;;;19.60;56.20;;;;;;10473852;28;20102;-27
2023/02/26 16:14:29;;;;;;;2.58;0.50;;;19.50;56.80;;;;;;10475877;28;20081;-25
2023/02/26 16:19:35;;;;;;;1.55;0.55;;;19.30;58.20;;;;;;10475260;28;20060;-23
2023/02/26 16:24:37;;;;;;;2.08;0.60;;;19.50;58.50;;;;;;10481776;28;20617;-24
2023/02/26 16:29:48;;;;;;;2.47;0.60;;;19.50;57.90;;;;;;10484613;28;20509;-25
2023/02/26 16:34:52;;;;;;;1.85;0.60;;;19.50;58.30;;;;;;10488982;28;20481;-24
2023/02/26 16:39:58;;;;;;;2.13;0.82;;;19.10;53.40;;;;;;10477384;28;20094;-25
2023/02/26 16:45:18;;;;;;;0.95;0.70;;;19.60;57.20;;;;;;10482331;28;20067;-24
2023/02/26 16:50:25;;;;;;;2.38;0.73;;;19.30;58.20;;;;;;10473916;28;20504;-25
2023/02/26 16:55:29;;;;;;;0.88;0.60;;;19.80;55.00;;;;;;10488813;28;20048;-25
2023/02/26 17:00:33;;;;;;;6.03;0.65;;;20.00;56.00;;;;;;10479690;28;20075;-31
2023/02/26 17:05:38;;;;;;;2.20;0.80;;;20.00;55.80;;;;;;10478033;28;20076;-24
2023/02/26 17:10:44;;;;;;;6.65;1.50;;;19.80;57.80;;;;;;10477120;28;20130;-25
2023/02/26 17:15:48;;;;;;;1.77;1.17;;;19.60;55.70;;;;;;10482094;28;20049;-24
2023/02/26 17:20:49;;;;;;;4.13;1.05;;;20.00;57.70;;;;;;10475644;28;20099;-24
2023/02/26 17:25:55;;;;;;;3.95;1.45;;;19.90;57.30;;;;;;10485766;28;20119;-25
2023/02/26 17:30:58;;;;;;;5.38;1.30;;;19.90;57.20;;;;;;10480823;28;20056;-24
2023/02/26 17:36:02;;;;;;;6.13;1.58;;;19.90;56.90;;;;;;10478716;28;20181;-24
2023/02/26 17:41:05;;;;;;;8.48;1.92;;;20.00;56.70;;;;;;10472010;28;20079;-25
2023/02/26 17:46:09;;;;;;;;;;;20.00;56.80;;;;;;10489852;28;20676;-24
2023/02/26 17:51:12;;;;;;;11.65;1.95;;;19.90;57.00;;;;;;10475845;28;20351;-25
2023/02/26 17:56:20;;;;;;;12.60;2.40;;;19.80;57.40;;;;;;10478271;28;20092;-25
2023/02/26 18:01:26;;;;;;;12.15;3.08;;;19.80;57.60;;;;;;10480298;28;20136;-24
2023/02/26 18:06:32;;;;;;;9.90;2.05;;;19.80;57.90;;;;;;10470921;28;20037;-23
2023/02/26 18:11:34;;;;;;;10.70;2.30;;;19.20;59.90;;;;;;10494387;28;20135;-24
2023/02/26 18:16:39;;;;;;;11.82;1.98;;;19.50;59.10;;;;;;10481543;28;20075;-24
2023/02/26 18:21:41;;;;;;;11.02;1.88;;;19.20;59.40;;;;;;10482271;28;20131;-25
2023/02/26 18:26:43;;;;;;;10.80;2.17;;;19.20;59.30;;;;;;10474312;28;20143;-25
2023/02/26 18:31:46;;;;;;;9.05;3.17;;;18.90;58.50;;;;;;10473367;28;20068;-25
2023/02/26 18:36:48;;;;;;;13.00;4.80;;;18.80;60.00;;;;;;10479601;28;20084;-24
2023/02/26 18:41:50;;;;;;;18.00;5.32;;;19.20;59.70;;;;;;10474739;28;20072;-25
2023/02/26 18:46:53;;;;;;;15.68;5.13;;;18.90;60.30;;;;;;10477561;28;20033;-24
2023/02/26 18:51:55;;;;;;;16.90;4.70;;;18.50;61.50;;;;;;10472358;28;20079;-24
2023/02/26 18:56:57;;;;;;;14.43;4.53;;;18.80;60.70;;;;;;10480616;28;20060;-25
2023/02/26 19:02:01;;;;;;;9.07;3.30;;;18.70;60.90;;;;;;10467730;28;20046;-25
2023/02/26 19:07:03;;;;;;;10.25;3.13;;;19.10;59.30;;;;;;10472312;28;20123;-24
2023/02/26 19:12:06;;;;;;;8.35;2.03;;;19.50;58.90;;;;;;10479549;28;20500;-24
2023/02/26 19:17:09;;;;;;;15.65;3.92;;;19.50;58.80;;;;;;10470741;28;20131;-24
2023/02/26 19:22:13;;;;;;;9.75;2.22;;;19.50;58.80;;;;;;10479644;28;20481;-25
2023/02/26 19:27:16;;;;;;;11.30;2.20;;;19.50;58.80;;;;;;10476206;28;20049;-27
2023/02/26 19:32:19;;;;;;;;;;;19.60;58.80;;;;;;10470342;28;20151;-24
2023/02/26 19:37:20;;;;;;;10.95;2.13;;;19.60;58.80;;;;;;10472447;28;19920;-24
2023/02/26 19:42:23;;;;;;;8.55;1.80;;;19.30;59.30;;;;;;10480001;28;20134;-24
2023/02/26 19:47:26;;;;;;;11.85;2.42;;;19.50;59.70;;;;;;10471562;28;20124;-24
2023/02/26 19:52:30;;;;;;;15.15;2.25;;;19.50;59.20;;;;;;10477115;28;20147;-24
2023/02/26 19:57:31;;;;;;;11.88;2.20;;;19.60;59.20;;;;;;10466508;28;20045;-24
2023/02/26 20:02:35;;;;;;;12.88;2.28;;;19.60;59.20;;;;;;10458137;28;20091;-25
2023/02/26 20:07:37;;;;;;;7.57;2.15;;;19.60;59.20;;;;;;10459438;28;20041;-24
2023/02/26 20:12:39;;;;;;;10.10;1.92;;;19.60;59.00;;;;;;10475725;28;20144;-24
2023/02/26 20:17:43;;;;;;;12.40;2.30;;;19.50;59.40;;;;;;10471423;28;20098;-24
2023/02/26 20:22:46;;;;;;;9.77;2.20;;;19.50;59.20;;;;;;10478802;28;20155;-24
2023/02/26 20:27:48;;;;;;;13.20;2.05;;;19.50;59.40;;;;;;10486135;28;20080;-25
2023/02/26 20:32:51;;;;;;;6.70;1.73;;;19.50;59.40;;;;;;10485077;28;20105;-26
2023/02/26 20:37:53;;;;;;;11.68;2.53;;;19.50;59.50;;;;;;10478960;28;20067;-25
2023/02/26 20:42:55;;;;;;;14.93;2.38;;;19.40;59.60;;;;;;10486942;28;20086;-25
2023/02/26 20:47:58;;;;;;;9.88;2.17;;;19.40;59.60;;;;;;10482335;28;20064;-25
2023/02/26 20:53:00;;;;;;;14.77;2.75;;;19.40;59.50;;;;;;10480421;28;20045;-25
2023/02/26 20:58:02;;;;;;;10.57;1.95;;;19.40;59.70;;;;;;10487733;28;20032;-27
2023/02/26 21:03:06;;;;;;;16.95;2.25;;;19.40;59.70;;;;;;10480749;28;20696;-25
2023/02/26 21:08:10;;;;;;;14.80;2.95;;;19.40;59.80;;;;;;10490140;28;20041;-24
2023/02/26 21:13:11;;;;;;;7.55;2.15;;;19.40;59.80;;;;;;10480209;28;20509;-24
2023/02/26 21:18:15;;;;;;;8.48;1.63;;;19.30;59.80;;;;;;10479252;28;20126;-24
2023/02/26 21:23:17;;;;;;;4.82;1.48;;;19.30;59.80;;;;;;10479130;28;20207;-25
2023/02/26 21:28:19;;;;;;;11.65;1.70;;;19.30;59.70;;;;;;10481839;28;20055;-23
2023/02/26 21:33:22;;;;;;;8.70;2.08;;;19.30;59.70;;;;;;10484301;28;20098;-24
2023/02/26 21:38:24;;;;;;;8.13;1.35;;;19.30;59.80;;;;;;10483129;28;20113;-25
2023/02/26 21:43:26;;;;;;;12.50;2.33;;;19.30;59.90;;;;;;10471271;28;20864;-23
2023/02/26 21:48:29;;;;;;;7.03;1.80;;;19.20;60.00;;;;;;10472378;28;20103;-24
2023/02/26 21:53:31;;;;;;;5.88;1.67;;;19.20;60.30;;;;;;10457631;28;20072;-24
2023/02/26 21:58:33;;;;;;;4.63;1.10;;;19.10;60.30;;;;;;10461039;28;20132;-25
2023/02/26 22:03:36;;;;;;;8.45;1.40;;;19.10;60.50;;;;;;10477482;28;20127;-25
2023/02/26 22:08:38;;;;;;;6.68;1.23;;;19.00;60.50;;;;;;10484278;28;20121;-25
2023/02/26 22:13:40;;;;;;;6.70;1.27;;;18.90;60.70;;;;;;10485435;28;20056;-25
2023/02/26 22:18:43;;;;;;;4.85;1.25;;;18.90;60.80;;;;;;10480569;28;20110;-25
2023/02/26 22:23:45;;;;;;;10.68;1.40;;;18.80;60.90;;;;;;10476598;28;20119;-24
2023/02/26 22:28:47;;;;;;;6.97;0.98;;;18.80;61.00;;;;;;10476155;28;20455;-24
2023/02/26 22:33:50;;;;;;;4.07;1.08;;;18.70;60.90;;;;;;10473331;28;20459;-25
2023/02/26 22:38:52;;;;;;;16.35;1.73;;;18.70;60.90;;;;;;10480665;28;20129;-25
2023/02/26 22:43:54;;;;;;;6.88;1.30;;;18.70;60.90;;;;;;10469492;28;21456;-23
2023/02/26 22:48:57;;;;;;;4.55;1.50;;;18.60;61.10;;;;;;10468601;28;20404;-25
2023/02/26 22:53:59;;;;;;;4.55;1.17;;;18.60;60.90;;;;;;10472437;28;20135;-25
2023/02/26 22:59:01;;;;;;;5.47;1.23;;;18.60;61.10;;;;;;10486607;28;20086;-24
2023/02/26 23:04:04;;;;;;;5.47;1.58;;;18.60;61.10;;;;;;10485086;28;20052;-24
2023/02/26 23:09:06;;;;;;;5.28;2.10;;;18.50;61.10;;;;;;10466953;28;20056;-25
2023/02/26 23:14:08;;;;;;;4.68;1.50;;;18.50;61.10;;;;;;10477029;28;20144;-25
2023/02/26 23:19:12;;;;;;;5.00;1.10;;;18.50;61.10;;;;;;10470311;28;20052;-24
2023/02/26 23:24:14;;;;;;;2.65;0.80;;;18.50;61.10;;;;;;10474981;28;20037;-23
2023/02/26 23:29:16;;;;;;;7.22;1.48;;;18.40;61.00;;;;;;10460547;28;20154;-26
2023/02/26 23:34:19;;;;;;;3.90;0.98;;;18.40;61.60;;;;;;10480333;28;20044;-26
2023/02/26 23:39:21;;;;;;;3.47;1.20;;;18.40;61.20;;;;;;10479713;28;20098;-26
2023/02/26 23:44:24;;;;;;;5.78;1.25;;;18.30;61.80;;;;;;10475889;28;20543;-24
2023/02/26 23:49:27;;;;;;;2.38;0.95;;;18.30;62.00;;;;;;10481529;28;20063;-24
2023/02/26 23:54:30;;;;;;;2.58;1.00;;;18.30;61.40;;;;;;10473246;28;20158;-24
2023/02/26 23:59:31;;;;;;;3.33;0.85;;;18.30;61.20;;;;;;10467262;28;20076;-24
